Time;durP1;ratioP1;P1;durP2;ratioP2;P2;SDS_P1;SDS_P2;PMS_P1;PMS_P2;Temp;Humidity;BMP_temperature;BMP_pressure;BME280_temperature;BME280_humidity;BME280_pressure;Samples;Min_cycle;Max_cycle;Signal;HPM_P1;HPM_P2
2021/04/20 00:02:21;;;;;;;103.78;48.67;;;4.20;62.30;;;;;;5106845;28;20048;-71
2021/04/20 00:04:48;;;;;;;112.10;47.80;;;4.30;62.60;;;;;;5108320;28;20532;-72
2021/04/20 00:07:15;;;;;;;107.53;47.40;;;4.10;62.40;;;;;;5104734;28;20040;-71
2021/04/20 00:09:44;;;;;;;98.35;48.65;;;4.10;62.40;;;;;;5112739;28;20050;-71
2021/04/20 00:12:12;;;;;;;104.20;47.85;;;4.10;62.50;;;;;;5109449;28;20050;-71
2021/04/20 00:14:39;;;;;;;114.72;48.35;;;4.10;62.50;;;;;;5109270;28;20051;-71
2021/04/20 00:17:07;;;;;;;105.72;46.72;;;4.10;62.50;;;;;;5106854;28;20048;-71
2021/04/20 00:19:34;;;;;;;104.30;48.28;;;4.10;62.60;;;;;;5111850;28;20051;-71
2021/04/20 00:22:01;;;;;;;106.55;50.75;;;4.10;62.60;;;;;;5106200;28;20051;-71
2021/04/20 00:24:27;;;;;;;106.15;48.25;;;4.10;62.70;;;;;;5108211;28;20519;-70
2021/04/20 00:26:55;;;;;;;108.10;48.35;;;4.20;62.90;;;;;;5109526;28;20058;-72
2021/04/20 00:29:22;;;;;;;112.50;48.10;;;4.20;62.90;;;;;;5112436;28;20039;-71
2021/04/20 00:31:49;;;;;;;114.13;50.75;;;4.20;62.90;;;;;;5110803;28;20035;-71
2021/04/20 00:34:16;;;;;;;107.72;49.45;;;4.20;62.90;;;;;;5110183;28;20052;-71
2021/04/20 00:36:43;;;;;;;123.32;53.53;;;4.10;62.80;;;;;;5109471;28;20082;-71
2021/04/20 00:39:10;;;;;;;127.43;52.15;;;4.20;63.00;;;;;;5111823;28;20421;-70
2021/04/20 00:41:36;;;;;;;126.10;52.97;;;4.30;63.10;;;;;;5110000;28;20043;-71
2021/04/20 00:44:05;;;;;;;122.95;52.85;;;4.30;63.20;;;;;;5109219;28;20058;-71
2021/04/20 00:46:32;;;;;;;139.65;54.80;;;4.40;63.40;;;;;;5107278;28;20054;-71
2021/04/20 00:48:59;;;;;;;192.38;64.57;;;4.50;63.60;;;;;;5109334;28;20126;-72
2021/04/20 00:51:26;;;;;;;207.80;64.25;;;4.40;63.50;;;;;;5106968;28;20129;-72
2021/04/20 00:53:52;;;;;;;205.82;63.80;;;4.40;63.70;;;;;;5108431;28;20079;-71
2021/04/20 00:56:19;;;;;;;169.68;62.70;;;4.40;63.80;;;;;;5105850;28;20061;-71
2021/04/20 00:58:47;;;;;;;155.60;63.22;;;4.40;64.00;;;;;;5108139;28;20058;-72
2021/04/20 01:01:15;;;;;;;148.55;57.88;;;4.40;64.30;;;;;;5108004;28;20054;-72
2021/04/20 01:03:42;;;;;;;148.90;57.42;;;4.40;64.40;;;;;;5109582;28;20565;-71
2021/04/20 01:06:09;;;;;;;155.25;58.65;;;4.40;64.60;;;;;;5107046;28;20054;-70
2021/04/20 01:08:37;;;;;;;138.00;55.05;;;4.30;64.60;;;;;;5103269;28;20044;-72
2021/04/20 01:11:05;;;;;;;129.55;54.53;;;4.30;64.70;;;;;;5108541;28;20075;-71
2021/04/20 01:13:34;;;;;;;132.52;53.75;;;4.30;64.70;;;;;;5109470;28;20054;-71
2021/04/20 01:16:01;;;;;;;132.60;55.88;;;4.30;64.80;;;;;;5105340;28;20158;-72
2021/04/20 01:18:31;;;;;;;147.10;56.75;;;4.30;64.80;;;;;;5108445;28;20055;-71
2021/04/20 01:21:00;;;;;;;131.52;55.40;;;4.30;65.00;;;;;;5109382;28;20107;-71
2021/04/20 01:23:45;;;;;;;124.70;53.42;;;4.30;65.10;;;;;;5108430;28;20051;-71
2021/04/20 01:26:13;;;;;;;;;;;4.20;64.80;;;;;;5105735;28;20043;-72
2021/04/20 01:28:40;;;;;;;132.57;57.55;;;4.20;65.50;;;;;;5109910;28;20304;-72
2021/04/20 01:31:08;;;;;;;130.73;59.13;;;4.20;66.10;;;;;;5105500;28;20075;-71
2021/04/20 01:33:35;;;;;;;127.78;56.95;;;4.20;65.50;;;;;;5109948;28;20051;-71
2021/04/20 01:36:03;;;;;;;131.57;54.80;;;4.20;65.60;;;;;;5104207;28;20059;-72
2021/04/20 01:38:31;;;;;;;129.55;55.10;;;4.20;65.60;;;;;;5107452;28;20416;-71
2021/04/20 01:40:58;;;;;;;133.43;56.50;;;4.20;65.60;;;;;;5104953;28;20052;-71
2021/04/20 01:43:26;;;;;;;128.75;57.25;;;4.20;65.60;;;;;;5106254;28;20053;-71
2021/04/20 01:45:53;;;;;;;127.82;55.63;;;4.20;65.60;;;;;;5106486;28;20072;-72
2021/04/20 01:48:20;;;;;;;124.35;55.55;;;4.20;65.60;;;;;;5105392;28;20485;-72
2021/04/20 01:50:47;;;;;;;118.43;54.58;;;4.20;65.50;;;;;;5107472;28;20047;-71
2021/04/20 01:53:14;;;;;;;124.72;53.08;;;4.10;65.50;;;;;;5105348;28;20611;-71
2021/04/20 01:55:41;;;;;;;121.05;52.92;;;4.10;65.40;;;;;;5104885;28;20044;-72
2021/04/20 01:58:09;;;;;;;121.20;54.70;;;4.00;65.30;;;;;;5107594;28;20044;-71
2021/04/20 02:00:39;;;;;;;123.53;53.85;;;4.00;65.30;;;;;;5108555;28;20069;-72
2021/04/20 02:03:08;;;;;;;127.07;53.20;;;4.00;65.40;;;;;;5105452;28;20043;-71
2021/04/20 02:05:36;;;;;;;117.60;51.78;;;3.80;65.20;;;;;;5104750;28;20050;-72
2021/04/20 02:08:04;;;;;;;112.85;50.80;;;3.60;65.00;;;;;;5105290;28;20062;-72
2021/04/20 02:10:31;;;;;;;103.88;49.42;;;3.60;65.00;;;;;;5108172;27;20048;-71
2021/04/20 02:12:58;;;;;;;103.43;47.28;;;3.50;64.90;;;;;;5105221;28;20425;-71
2021/04/20 02:15:25;;;;;;;105.38;50.92;;;3.40;64.80;;;;;;5105238;28;20039;-72
2021/04/20 02:17:54;;;;;;;109.57;48.72;;;3.50;64.90;;;;;;5104834;28;20047;-71
2021/04/20 02:20:21;;;;;;;91.55;42.92;;;3.30;64.70;;;;;;5106760;28;20142;-71
2021/04/20 02:22:49;;;;;;;94.07;45.60;;;3.20;64.60;;;;;;5105964;28;20040;-71
2021/04/20 02:25:18;;;;;;;87.38;42.58;;;3.20;65.20;;;;;;5105771;28;20051;-72
2021/04/20 02:27:45;;;;;;;90.53;42.40;;;3.10;64.40;;;;;;5106381;28;20420;-71
2021/04/20 02:30:14;;;;;;;96.55;45.50;;;3.10;64.40;;;;;;5106366;28;20050;-72
2021/04/20 02:32:41;;;;;;;96.20;44.67;;;3.10;64.30;;;;;;5107255;28;20052;-70
2021/04/20 02:35:12;;;;;;;92.47;47.08;;;3.20;64.60;;;;;;5105380;28;20152;-71
2021/04/20 02:37:41;;;;;;;89.15;44.45;;;3.20;64.60;;;;;;5104929;28;20498;-71
2021/04/20 02:40:10;;;;;;;91.63;44.85;;;3.20;64.60;;;;;;5108259;28;20048;-70
2021/04/20 02:42:38;;;;;;;102.03;46.70;;;3.30;64.80;;;;;;5104695;28;20053;-71
2021/04/20 02:45:07;;;;;;;107.65;47.42;;;3.30;64.70;;;;;;5106662;28;20693;-70
2021/04/20 02:47:35;;;;;;;97.15;49.55;;;3.40;64.80;;;;;;5108679;28;20039;-71
2021/04/20 02:50:02;;;;;;;104.53;48.15;;;3.50;64.90;;;;;;5109191;28;20043;-71
2021/04/20 02:52:31;;;;;;;92.40;45.70;;;3.50;65.00;;;;;;5108075;28;20418;-72
2021/04/20 02:55:00;;;;;;;90.22;44.83;;;3.30;64.70;;;;;;5109838;28;20055;-70
2021/04/20 02:57:29;;;;;;;101.07;45.85;;;3.10;64.30;;;;;;5112572;28;20047;-71
2021/04/20 02:59:57;;;;;;;92.10;44.90;;;3.20;64.50;;;;;;5111631;28;20050;-71
2021/04/20 03:02:24;;;;;;;93.93;45.05;;;3.10;64.40;;;;;;5112029;28;20057;-71
2021/04/20 03:04:52;;;;;;;90.93;45.13;;;3.20;64.50;;;;;;5112267;28;20050;-71
2021/04/20 03:07:19;;;;;;;94.40;44.28;;;3.10;64.50;;;;;;5113149;28;20520;-71
2021/04/20 03:09:47;;;;;;;90.57;43.97;;;3.10;64.40;;;;;;5113241;28;20046;-71
2021/04/20 03:12:15;;;;;;;95.93;43.97;;;2.90;63.80;;;;;;5112754;28;20044;-71
2021/04/20 03:14:42;;;;;;;89.93;43.95;;;2.80;63.60;;;;;;5111698;28;20088;-71
2021/04/20 03:17:09;;;;;;;87.88;43.10;;;2.70;63.40;;;;;;5107859;28;20051;-70
2021/04/20 03:19:36;;;;;;;87.07;43.38;;;2.60;63.20;;;;;;5113692;28;20047;-71
2021/04/20 03:22:03;;;;;;;83.70;41.78;;;2.60;63.20;;;;;;5111425;28;20052;-71
2021/04/20 03:25:12;;;;;;;85.90;42.15;;;2.60;63.40;;;;;;5112656;28;20093;-71
2021/04/20 03:27:45;;;;;;;87.97;43.33;;;2.60;63.40;;;;;;5066120;28;20480;-71
2021/04/20 03:30:13;;;;;;;91.47;45.35;;;2.70;63.60;;;;;;5112179;28;20062;-71
2021/04/20 03:32:46;;;;;;;93.95;45.72;;;2.80;63.80;;;;;;5108079;28;20505;-70
2021/04/20 03:35:18;;;;;;;91.43;45.67;;;2.90;64.10;;;;;;5106364;28;20075;-71
2021/04/20 03:37:51;;;;;;;107.10;48.15;;;3.00;64.40;;;;;;5108213;28;20048;-71
2021/04/20 03:40:20;;;;;;;90.70;47.75;;;2.90;64.20;;;;;;5108907;28;20044;-70
2021/04/20 03:42:52;;;;;;;96.32;47.60;;;3.10;64.50;;;;;;5107489;28;20046;-71
2021/04/20 03:45:23;;;;;;;93.07;47.08;;;3.20;64.60;;;;;;5105790;28;20046;-71
2021/04/20 03:47:54;;;;;;;87.22;45.70;;;3.10;64.50;;;;;;5108202;28;20047;-71
2021/04/20 03:50:26;;;;;;;93.90;47.25;;;3.10;64.50;;;;;;5109264;28;20051;-70
2021/04/20 03:52:58;;;;;;;95.38;45.75;;;2.90;64.30;;;;;;5106111;28;20044;-71
2021/04/20 03:55:28;;;;;;;80.82;42.38;;;2.70;63.70;;;;;;5104019;28;20428;-72
2021/04/20 03:57:57;;;;;;;89.57;45.38;;;2.60;63.40;;;;;;5106777;28;20557;-71
2021/04/20 04:00:26;;;;;;;88.28;44.92;;;2.60;63.50;;;;;;5106657;28;20220;-71
2021/04/20 04:02:55;;;;;;;93.38;44.20;;;2.70;63.70;;;;;;5108375;28;20047;-71
2021/04/20 04:05:25;;;;;;;96.65;45.20;;;2.90;64.10;;;;;;5104723;28;20569;-71
2021/04/20 04:08:01;;;;;;;116.32;49.00;;;3.10;64.50;;;;;;5108109;28;20050;-71
2021/04/20 04:10:30;;;;;;;182.73;56.00;;;3.20;64.60;;;;;;5108086;28;20056;-71
2021/04/20 04:13:02;;;;;;;156.65;56.60;;;3.30;64.80;;;;;;5105513;28;20054;-71
2021/04/20 04:15:31;;;;;;;289.02;61.53;;;3.40;64.80;;;;;;5105554;28;20413;-71
2021/04/20 04:18:01;;;;;;;198.25;52.83;;;3.20;64.70;;;;;;5105915;28;20052;-71
2021/04/20 04:20:28;;;;;;;223.38;53.97;;;3.30;64.80;;;;;;5110902;27;20066;-71
2021/04/20 04:23:02;;;;;;;246.73;55.85;;;3.30;64.70;;;;;;5103897;28;20602;-70
2021/04/20 04:25:33;;;;;;;264.85;55.42;;;3.20;64.70;;;;;;5107757;28;20040;-70
2021/04/20 04:28:02;;;;;;;201.48;50.85;;;3.10;64.60;;;;;;5105978;28;20055;-71
2021/04/20 04:30:30;;;;;;;147.95;48.13;;;3.20;64.60;;;;;;5109472;28;20040;-71
2021/04/20 04:32:58;;;;;;;213.45;50.85;;;3.30;64.80;;;;;;5107410;28;20493;-71
2021/04/20 04:35:27;;;;;;;284.55;55.75;;;3.40;64.80;;;;;;5105873;28;20056;-71
2021/04/20 04:37:55;;;;;;;264.17;56.63;;;3.10;64.60;;;;;;5104591;28;20498;-72
2021/04/20 04:40:22;;;;;;;205.93;54.15;;;3.00;64.50;;;;;;5110094;28;21254;-69
2021/04/20 04:42:49;;;;;;;135.32;49.55;;;2.90;64.40;;;;;;5107237;28;20052;-71
2021/04/20 04:45:18;;;;;;;199.68;48.22;;;2.80;64.30;;;;;;5106028;28;20040;-71
2021/04/20 04:47:46;;;;;;;148.52;41.47;;;2.80;64.30;;;;;;5107563;28;20497;-71
2021/04/20 04:50:13;;;;;;;228.50;47.50;;;2.80;64.30;;;;;;5109904;28;20502;-71
2021/04/20 04:52:41;;;;;;;191.55;48.33;;;2.70;64.20;;;;;;5106263;28;20074;-71
2021/04/20 04:55:09;;;;;;;133.15;43.67;;;2.70;64.10;;;;;;5104894;28;20057;-72
2021/04/20 04:57:38;;;;;;;163.55;44.08;;;2.80;64.30;;;;;;5107284;28;20040;-72
2021/04/20 05:00:07;;;;;;;246.48;53.60;;;2.80;64.30;;;;;;5107368;28;20154;-71
2021/04/20 05:02:35;;;;;;;114.88;41.40;;;2.90;64.40;;;;;;5104775;28;20122;-71
2021/04/20 05:05:07;;;;;;;163.45;46.30;;;3.00;64.50;;;;;;5106995;28;20111;-72
2021/04/20 05:07:34;;;;;;;356.13;60.13;;;3.00;64.50;;;;;;5106257;28;20074;-71
2021/04/20 05:10:03;;;;;;;165.73;44.55;;;3.00;64.40;;;;;;5106086;28;20512;-71
2021/04/20 05:12:32;;;;;;;128.10;42.22;;;3.00;64.50;;;;;;5106216;28;20069;-72
2021/04/20 05:15:05;;;;;;;296.10;53.33;;;2.90;64.40;;;;;;5103842;28;20062;-70
2021/04/20 05:17:36;;;;;;;134.50;42.55;;;2.90;64.40;;;;;;5102385;28;20067;-71
2021/04/20 05:20:05;;;;;;;118.20;43.60;;;3.00;64.50;;;;;;5108474;28;20061;-71
2021/04/20 05:22:33;;;;;;;238.60;49.20;;;3.00;64.50;;;;;;5103374;28;20127;-72
2021/04/20 05:25:00;;;;;;;152.60;39.85;;;2.90;64.40;;;;;;5103244;28;20097;-70
2021/04/20 05:27:27;;;;;;;145.20;40.97;;;2.90;64.40;;;;;;5107233;28;20039;-71
2021/04/20 05:29:54;;;;;;;163.93;42.25;;;2.90;64.40;;;;;;5108007;28;20047;-71
2021/04/20 05:32:21;;;;;;;214.70;43.78;;;2.90;64.40;;;;;;5105879;28;20118;-70
2021/04/20 05:34:50;;;;;;;160.10;39.58;;;3.10;64.60;;;;;;5105675;28;20158;-70
2021/04/20 05:37:30;;;;;;;100.32;37.17;;;3.00;64.40;;;;;;5103142;28;20061;-71
2021/04/20 05:40:04;;;;;;;125.97;38.03;;;3.00;64.40;;;;;;5106905;28;20052;-71
2021/04/20 05:42:31;;;;;;;162.02;36.40;;;3.20;64.60;;;;;;5104708;28;20066;-71
2021/04/20 05:44:58;;;;;;;162.85;38.70;;;3.30;64.40;;;;;;5105219;28;20105;-70
2021/04/20 05:47:25;;;;;;;166.20;37.70;;;3.40;64.00;;;;;;5104716;28;20043;-71
2021/04/20 05:49:56;;;;;;;147.80;35.05;;;3.40;62.90;;;;;;5106915;28;20406;-71
2021/04/20 05:52:23;;;;;;;110.38;32.63;;;3.50;63.80;;;;;;5105808;28;20051;-71
2021/04/20 05:54:55;;;;;;;150.82;34.00;;;3.60;63.90;;;;;;5104058;28;20071;-70
2021/04/20 05:57:22;;;;;;;174.30;34.20;;;3.90;63.90;;;;;;5104887;28;20070;-71
2021/04/20 05:59:52;;;;;;;70.80;28.77;;;4.10;63.80;;;;;;5106519;28;20044;-71
2021/04/20 06:02:20;;;;;;;71.35;26.48;;;3.90;59.90;;;;;;5104610;28;20500;-71
2021/04/20 06:04:51;;;;;;;64.03;26.88;;;3.70;56.50;;;;;;5104314;28;20532;-71
2021/04/20 06:07:19;;;;;;;84.82;27.98;;;4.00;60.90;;;;;;5103990;28;20048;-71
2021/04/20 06:09:46;;;;;;;50.42;26.10;;;4.10;57.50;;;;;;5107494;28;20051;-71
2021/04/20 06:12:15;;;;;;;43.22;24.23;;;4.30;54.30;;;;;;5103453;28;20048;-70
2021/04/20 06:14:42;;;;;;;45.30;25.70;;;4.70;56.60;;;;;;5105544;28;20045;-71
2021/04/20 06:17:12;;;;;;;42.47;24.35;;;4.70;48.90;;;;;;5103413;28;20051;-70
2021/04/20 06:19:40;;;;;;;45.75;26.02;;;5.20;49.10;;;;;;5108220;28;20047;-71
2021/04/20 06:22:12;;;;;;;36.75;23.05;;;5.60;42.60;;;;;;5104556;28;20052;-71
2021/04/20 06:24:41;;;;;;;39.85;24.17;;;5.50;40.70;;;;;;5107600;28;20055;-72
2021/04/20 06:27:08;;;;;;;34.35;23.92;;;5.70;39.10;;;;;;5102924;28;20130;-71
2021/04/20 06:29:36;;;;;;;40.22;24.23;;;5.90;35.40;;;;;;5109162;28;20493;-71
2021/04/20 06:32:03;;;;;;;39.17;23.55;;;5.90;36.60;;;;;;5106706;28;20044;-71
2021/04/20 06:34:32;;;;;;;34.08;23.85;;;6.10;32.70;;;;;;5109445;28;20125;-71
2021/04/20 06:36:59;;;;;;;34.97;23.65;;;6.30;32.60;;;;;;5106948;28;20055;-70
2021/04/20 06:39:27;;;;;;;38.95;24.95;;;6.50;30.80;;;;;;5106004;28;20050;-71
2021/04/20 06:41:58;;;;;;;43.22;25.70;;;6.50;28.60;;;;;;5107333;28;20047;-71
2021/04/20 06:44:32;;;;;;;34.75;23.38;;;6.80;27.60;;;;;;5108788;28;20052;-71
2021/04/20 06:47:09;;;;;;;37.28;22.65;;;6.60;27.40;;;;;;5107499;28;20131;-71
2021/04/20 06:49:42;;;;;;;34.72;22.30;;;6.40;31.70;;;;;;5107398;28;20071;-72
2021/04/20 06:52:18;;;;;;;40.45;24.70;;;7.00;28.70;;;;;;5106528;28;20068;-71
2021/04/20 06:54:52;;;;;;;40.10;24.55;;;7.30;25.70;;;;;;5109141;28;20047;-72
2021/04/20 06:57:27;;;;;;;43.43;24.53;;;7.20;20.90;;;;;;5104687;28;20058;-72
2021/04/20 07:00:03;;;;;;;39.05;23.55;;;7.60;22.60;;;;;;5103784;28;20058;-71
2021/04/20 07:02:39;;;;;;;34.92;23.30;;;7.60;20.90;;;;;;5105913;28;20044;-71
2021/04/20 07:05:10;;;;;;;36.33;24.70;;;7.60;20.90;;;;;;5105631;28;20396;-71
2021/04/20 07:08:00;;;;;;;37.85;24.77;;;7.50;21.20;;;;;;5107961;28;20134;-72
2021/04/20 07:10:32;;;;;;;35.13;24.67;;;7.70;21.30;;;;;;5105932;28;20039;-72
2021/04/20 07:13:06;;;;;;;43.42;29.35;;;8.00;19.50;;;;;;5106320;28;20047;-71
2021/04/20 07:15:35;;;;;;;39.47;24.52;;;8.00;17.80;;;;;;5106917;28;20046;-73
2021/04/20 07:18:48;;;;;;;37.60;24.52;;;8.20;18.80;;;;;;5104890;28;20079;-71
2021/04/20 07:21:22;;;;;;;35.90;22.30;;;8.50;17.40;;;;;;5059578;28;20386;-71
2021/04/20 07:24:03;;;;;;;;;;;8.40;15.30;;;;;;5109862;28;20050;-71
2021/04/20 07:26:46;;;;;;;39.05;23.67;;;8.80;15.50;;;;;;5103577;28;19920;-72
2021/04/20 07:29:34;;;;;;;39.05;24.25;;;8.70;13.60;;;;;;5107824;28;20102;-71
2021/04/20 07:32:15;;;;;;;35.75;23.45;;;8.90;14.30;;;;;;5107112;28;20043;-72
2021/04/20 07:34:50;;;;;;;33.67;22.58;;;8.60;11.70;;;;;;5107709;28;20378;-71
2021/04/20 07:37:34;;;;;;;40.05;23.92;;;9.00;13.50;;;;;;5104508;28;20053;-71
2021/04/20 07:40:15;;;;;;;32.97;23.52;;;9.30;12.60;;;;;;5106798;28;20055;-71
2021/04/20 07:42:55;;;;;;;35.72;22.75;;;9.30;12.20;;;;;;5108363;28;20138;-72
2021/04/20 07:45:30;;;;;;;30.25;21.45;;;9.30;12.50;;;;;;5108633;28;20063;-71
2021/04/20 07:48:07;;;;;;;33.83;24.17;;;9.10;11.60;;;;;;5109457;28;20047;-71
2021/04/20 07:50:42;;;;;;;36.90;23.42;;;9.70;12.00;;;;;;5109189;28;20047;-72
2021/04/20 07:53:15;;;;;;;37.50;24.27;;;9.50;12.80;;;;;;5109751;28;20043;-71
2021/04/20 07:55:50;;;;;;;45.88;26.00;;;9.60;13.10;;;;;;5109707;28;20497;-72
2021/04/20 07:58:20;;;;;;;;;;;9.90;11.70;;;;;;5108666;28;20040;-72
2021/04/20 08:00:56;;;;;;;37.30;23.20;;;9.90;10.20;;;;;;5111714;28;19919;-72
2021/04/20 08:03:26;;;;;;;42.30;25.38;;;10.00;9.10;;;;;;5107986;28;20044;-72
2021/04/20 08:06:00;;;;;;;41.25;25.45;;;10.10;9.70;;;;;;5108494;28;20078;-72
2021/04/20 08:08:31;;;;;;;43.17;26.27;;;10.30;9.50;;;;;;5108672;28;20051;-72
2021/04/20 08:11:03;;;;;;;43.05;25.48;;;10.40;7.70;;;;;;5111351;28;20100;-72
2021/04/20 08:13:35;;;;;;;40.17;26.33;;;10.30;8.00;;;;;;5111781;28;20044;-72
2021/04/20 08:16:11;;;;;;;44.50;27.00;;;10.20;9.80;;;;;;5109624;28;20441;-72
2021/04/20 08:18:48;;;;;;;40.10;26.10;;;10.00;11.80;;;;;;5107984;28;20530;-72
2021/04/20 08:21:15;;;;;;;38.67;26.35;;;10.40;10.70;;;;;;5106343;28;20494;-71
2021/04/20 08:23:48;;;;;;;39.65;25.33;;;10.70;8.30;;;;;;5110348;28;20043;-71
2021/04/20 08:26:21;;;;;;;40.90;25.27;;;10.70;7.20;;;;;;5108981;28;20135;-71
2021/04/20 08:28:55;;;;;;;41.50;25.33;;;10.80;8.70;;;;;;5108761;28;20046;-72
2021/04/20 08:31:32;;;;;;;44.72;28.73;;;11.00;7.70;;;;;;5105081;28;20721;-71
2021/04/20 08:34:05;;;;;;;40.65;26.50;;;11.20;7.40;;;;;;5108921;28;20593;-72
2021/04/20 08:36:41;;;;;;;41.85;27.35;;;10.40;9.00;;;;;;5109142;28;20052;-72
2021/04/20 08:39:17;;;;;;;44.80;26.27;;;10.70;8.80;;;;;;5105302;28;20044;-71
2021/04/20 08:41:49;;;;;;;38.28;25.10;;;11.20;6.80;;;;;;5107286;28;20127;-72
2021/04/20 08:44:25;;;;;;;39.92;26.60;;;11.30;4.50;;;;;;5108423;28;20052;-72
2021/04/20 08:47:00;;;;;;;41.00;26.17;;;11.20;4.90;;;;;;5105744;28;20407;-73
2021/04/20 08:49:38;;;;;;;37.95;26.35;;;11.40;4.30;;;;;;5110705;28;20079;-72
2021/04/20 08:52:20;;;;;;;36.88;24.77;;;11.50;3.60;;;;;;5103290;28;20053;-72
2021/04/20 08:55:00;;;;;;;35.42;23.50;;;11.70;3.00;;;;;;5107434;28;20040;-72
2021/04/20 08:57:33;;;;;;;48.63;32.22;;;11.70;1.60;;;;;;5104413;28;20047;-72
2021/04/20 09:00:11;;;;;;;35.38;24.55;;;11.70;1.50;;;;;;5108791;28;20132;-72
2021/04/20 09:02:52;;;;;;;38.25;23.85;;;11.90;1.10;;;;;;5105916;28;20061;-72
2021/04/20 09:05:25;;;;;;;32.05;22.95;;;11.60;3.50;;;;;;5109124;28;20104;-72
2021/04/20 09:08:09;;;;;;;35.80;24.67;;;11.90;1.00;;;;;;5105877;28;20132;-71
2021/04/20 09:10:43;;;;;;;33.92;23.45;;;11.70;2.10;;;;;;5109988;28;20058;-72
2021/04/20 09:13:19;;;;;;;38.25;25.58;;;11.50;3.10;;;;;;5104930;28;20084;-72
2021/04/20 09:15:48;;;;;;;39.88;24.98;;;11.80;2.50;;;;;;5105306;28;20055;-74
2021/04/20 09:18:21;;;;;;;35.63;23.90;;;11.50;3.00;;;;;;5106999;28;20497;-72
2021/04/20 09:20:56;;;;;;;33.10;22.75;;;11.50;2.20;;;;;;5107707;28;20047;-72
2021/04/20 09:23:36;;;;;;;34.13;23.13;;;11.90;1.00;;;;;;5107390;28;20058;-71
2021/04/20 09:26:14;;;;;;;29.80;19.55;;;11.70;1.00;;;;;;5107421;28;20493;-73
2021/04/20 09:28:49;;;;;;;28.00;18.60;;;11.70;1.00;;;;;;5103128;28;20048;-72
2021/04/20 09:31:18;;;;;;;24.77;16.73;;;11.90;1.00;;;;;;5102827;28;20048;-71
2021/04/20 09:33:50;;;;;;;27.05;18.85;;;11.80;1.00;;;;;;5109602;28;20058;-73
2021/04/20 09:36:18;;;;;;;30.80;21.55;;;12.00;1.00;;;;;;5103958;28;20043;-73
2021/04/20 09:38:46;;;;;;;31.58;21.65;;;12.30;1.00;;;;;;5107167;28;20053;-72
2021/04/20 09:41:15;;;;;;;28.23;20.08;;;12.70;1.00;;;;;;5107407;28;20047;-72
2021/04/20 09:43:53;;;;;;;29.52;20.92;;;12.30;1.00;;;;;;5108542;28;20119;-71
2021/04/20 09:46:31;;;;;;;31.10;18.38;;;12.50;1.00;;;;;;5101782;28;20051;-71
2021/04/20 09:49:08;;;;;;;25.70;18.38;;;12.70;1.00;;;;;;5104825;28;20056;-72
2021/04/20 09:51:47;;;;;;;29.27;19.67;;;12.30;1.00;;;;;;5104973;28;20116;-70
2021/04/20 09:54:20;;;;;;;28.55;19.45;;;12.40;1.00;;;;;;5106137;28;20043;-70
2021/04/20 09:56:53;;;;;;;29.67;18.70;;;12.20;1.00;;;;;;5103963;28;20058;-71
2021/04/20 09:59:40;;;;;;;30.20;19.50;;;12.20;1.00;;;;;;5100609;28;20052;-71
2021/04/20 10:02:27;;;;;;;27.15;19.27;;;12.40;1.00;;;;;;5102153;28;20040;-72
2021/04/20 10:05:09;;;;;;;25.80;18.17;;;12.60;1.00;;;;;;5103794;28;20055;-72
2021/04/20 10:07:56;;;;;;;25.10;18.38;;;12.70;1.00;;;;;;5104606;28;20043;-72
2021/04/20 10:10:32;;;;;;;26.77;18.48;;;12.60;1.00;;;;;;5106340;28;20047;-72
2021/04/20 10:13:14;;;;;;;27.23;17.55;;;12.50;1.00;;;;;;5103991;28;20051;-71
2021/04/20 10:15:47;;;;;;;26.42;18.27;;;12.90;1.00;;;;;;5103366;28;20043;-70
2021/04/20 10:18:25;;;;;;;29.33;18.60;;;12.70;1.00;;;;;;5105259;28;20138;-71
2021/04/20 10:21:03;;;;;;;27.48;18.92;;;13.00;1.00;;;;;;5106323;28;20480;-72
2021/04/20 10:23:36;;;;;;;26.52;18.02;;;12.90;1.00;;;;;;5104061;28;20131;-71
2021/04/20 10:26:21;;;;;;;26.80;18.27;;;13.30;1.00;;;;;;5104691;28;20162;-71
2021/04/20 10:28:55;;;;;;;26.63;18.02;;;13.40;1.00;;;;;;5106156;28;20439;-71
2021/04/20 10:31:28;;;;;;;25.73;16.85;;;13.70;1.00;;;;;;5100884;28;20052;-72
2021/04/20 10:33:56;;;;;;;26.15;16.40;;;13.50;1.00;;;;;;5105532;28;20123;-71
2021/04/20 10:36:26;;;;;;;21.75;15.73;;;13.50;1.00;;;;;;5104655;28;20082;-72
2021/04/20 10:38:54;;;;;;;22.02;15.30;;;13.60;1.00;;;;;;5107073;28;20067;-72
2021/04/20 10:41:24;;;;;;;20.63;14.23;;;14.00;1.00;;;;;;5102678;28;20552;-72
2021/04/20 10:43:52;;;;;;;19.27;14.55;;;13.80;1.00;;;;;;5107012;28;20039;-72
2021/04/20 10:46:24;;;;;;;20.95;14.27;;;13.40;1.00;;;;;;5101426;28;20497;-71
2021/04/20 10:48:53;;;;;;;20.17;13.23;;;13.30;1.00;;;;;;5107190;28;20664;-72
2021/04/20 10:51:29;;;;;;;20.58;14.27;;;14.00;1.00;;;;;;5103854;28;20066;-71
2021/04/20 10:53:58;;;;;;;22.10;14.13;;;14.30;1.00;;;;;;5104396;28;20051;-72
2021/04/20 10:56:26;;;;;;;21.10;14.38;;;14.10;1.00;;;;;;5104059;28;21340;-70
2021/04/20 10:58:55;;;;;;;20.25;15.00;;;13.90;1.00;;;;;;5103427;28;20039;-73
2021/04/20 11:01:27;;;;;;;21.88;14.57;;;14.20;1.00;;;;;;5103232;28;20048;-72
2021/04/20 11:03:56;;;;;;;18.00;13.68;;;14.70;1.00;;;;;;5102088;28;20062;-72
2021/04/20 11:06:42;;;;;;;21.75;14.48;;;15.10;1.00;;;;;;5103442;28;20082;-72
2021/04/20 11:09:10;;;;;;;22.10;14.63;;;15.30;1.00;;;;;;5106891;28;20055;-70
2021/04/20 11:11:40;;;;;;;25.88;15.23;;;14.90;1.00;;;;;;5103119;28;20104;-72
2021/04/20 11:14:07;;;;;;;21.95;14.65;;;15.00;1.00;;;;;;5105149;28;20580;-70
2021/04/20 11:16:40;;;;;;;17.35;12.55;;;15.00;1.00;;;;;;5107833;28;20062;-71
2021/04/20 11:19:11;;;;;;;13.75;10.05;;;15.80;1.00;;;;;;5108717;28;20134;-71
2021/04/20 11:21:43;;;;;;;14.15;10.10;;;16.10;1.00;;;;;;5108324;28;20557;-71
2021/04/20 11:24:18;;;;;;;13.30;9.75;;;16.40;1.00;;;;;;5107768;28;20071;-71
2021/04/20 11:26:53;;;;;;;13.60;10.70;;;16.30;1.00;;;;;;5106965;28;20126;-70
2021/04/20 11:29:27;;;;;;;14.60;11.52;;;16.00;1.00;;;;;;5109750;28;20051;-70
2021/04/20 11:31:55;;;;;;;18.10;13.50;;;15.80;1.00;;;;;;5109483;28;20051;-71
2021/04/20 11:34:25;;;;;;;17.73;13.35;;;16.30;1.00;;;;;;5108469;28;20124;-70
2021/04/20 11:36:56;;;;;;;15.18;11.13;;;16.10;1.00;;;;;;5107412;28;20090;-71
2021/04/20 11:39:36;;;;;;;16.35;12.25;;;15.90;1.00;;;;;;5109853;28;20077;-72
2021/04/20 11:42:06;;;;;;;14.43;11.90;;;16.00;1.00;;;;;;5106948;28;20047;-70
2021/04/20 11:44:36;;;;;;;16.02;11.82;;;16.50;1.00;;;;;;5108310;28;20062;-71
2021/04/20 11:47:05;;;;;;;15.25;12.30;;;16.70;1.00;;;;;;5107319;28;20128;-70
2021/04/20 11:49:34;;;;;;;16.35;12.93;;;16.40;1.00;;;;;;5107781;28;20403;-71
2021/04/20 11:52:02;;;;;;;16.50;12.25;;;16.00;1.00;;;;;;5106711;28;20093;-70
2021/04/20 11:54:34;;;;;;;15.63;11.82;;;16.20;1.00;;;;;;5107760;28;20126;-70
2021/04/20 11:57:03;;;;;;;17.25;12.48;;;16.40;1.00;;;;;;5106830;28;20131;-71
2021/04/20 11:59:32;;;;;;;16.30;13.23;;;16.20;1.00;;;;;;5107788;28;20444;-70
2021/04/20 12:01:59;;;;;;;17.50;13.63;;;16.10;1.00;;;;;;5107307;28;20043;-71
2021/04/20 12:04:28;;;;;;;18.15;12.73;;;15.80;1.00;;;;;;5106588;28;20043;-71
2021/04/20 12:06:57;;;;;;;16.98;12.02;;;16.40;1.00;;;;;;5108299;28;20052;-70
2021/04/20 12:09:26;;;;;;;16.48;12.13;;;17.00;1.00;;;;;;5109583;28;20053;-71
2021/04/20 12:11:55;;;;;;;15.48;10.98;;;17.20;1.00;;;;;;5105986;28;20130;-71
2021/04/20 12:14:23;;;;;;;14.52;10.88;;;16.80;1.00;;;;;;5106770;28;20058;-70
2021/04/20 12:16:53;;;;;;;18.10;12.88;;;17.20;1.00;;;;;;5107292;28;20131;-71
2021/04/20 12:19:24;;;;;;;14.68;10.95;;;16.70;1.00;;;;;;5107958;27;20059;-71
2021/04/20 12:22:00;;;;;;;15.60;10.98;;;16.10;1.00;;;;;;5106234;28;20500;-73
2021/04/20 12:24:29;;;;;;;14.10;11.00;;;16.10;1.00;;;;;;5108196;28;20054;-72
2021/04/20 12:27:01;;;;;;;15.65;11.77;;;16.10;1.00;;;;;;5103754;28;20047;-70
2021/04/20 12:29:33;;;;;;;13.80;11.25;;;16.10;1.00;;;;;;5109349;28;20050;-72
2021/04/20 12:32:00;;;;;;;14.52;10.88;;;15.50;1.00;;;;;;5106643;28;20062;-72
2021/04/20 12:34:28;;;;;;;16.77;10.70;;;16.30;1.00;;;;;;5108204;28;20126;-71
2021/04/20 12:37:00;;;;;;;13.43;9.68;;;16.80;1.00;;;;;;5106803;28;20069;-72
2021/04/20 12:39:29;;;;;;;12.13;9.13;;;17.20;1.00;;;;;;5109139;28;20047;-71
2021/04/20 12:41:58;;;;;;;12.52;9.30;;;17.50;1.00;;;;;;5105891;28;20130;-71
2021/04/20 12:44:34;;;;;;;13.13;9.85;;;16.80;1.00;;;;;;5107761;28;20047;-71
2021/04/20 12:47:03;;;;;;;13.30;9.13;;;17.10;1.00;;;;;;5104616;28;20051;-69
2021/04/20 12:49:32;;;;;;;14.80;9.30;;;17.00;1.00;;;;;;5106442;28;20142;-72
2021/04/20 12:52:04;;;;;;;12.25;8.65;;;17.40;1.00;;;;;;5104895;28;20082;-71
2021/04/20 12:54:36;;;;;;;10.90;8.80;;;17.40;1.00;;;;;;5104577;28;20043;-71
2021/04/20 12:57:06;;;;;;;12.85;10.07;;;17.60;1.00;;;;;;5105523;28;20047;-71